Airport View

Enter AWOS ICAO identifier for current METAR.

ex. KFNL

KMQI 030005Z AUTO 23014KT 10SM CLR 23/16 A3000 RMK AO2 T02320163

3 Jun 2020 00:08

Frequency: 128.275

Phone: 252-473-2826

Other Area AWOS: KFFA - K2DP - K7W6 - KECG

TAF KECG 022320Z 0300/0324 21009KT P6SM SCT080 FM030700 23014KT P6SM FEW080